Time;durP1;ratioP1;P1;durP2;ratioP2;P2;SDS_P1;SDS_P2;PMS_P1;PMS_P2;Temp;Humidity;BMP_temperature;BMP_pressure;BME280_temperature;BME280_humidity;BME280_pressure;Samples;Min_cycle;Max_cycle;Signal;HPM_P1;HPM_P2
2023/06/06 04:46:36;;;;;;;;;;;;;;;14.84;73.83;100842.11;106857;1279;22585;-43
2023/06/06 04:49:04;;;;;;;;;;;;;;;15.05;70.91;100839.27;107064;1282;22508;-47
2023/06/06 04:51:33;;;;;;;;;;;;;;;15.23;69.17;100842.79;106934;1282;23087;-47
2023/06/06 04:54:02;;;;;;;;;;;;;;;15.40;68.41;100842.60;106928;1281;22522;-42
2023/06/06 04:56:30;;;;;;;;;;;;;;;15.58;67.10;100850.14;107495;1283;22512;-42
2023/06/06 04:59:05;;;;;;;;;;;;;;;15.75;65.73;100846.80;107383;1283;22502;-45
2023/06/06 05:01:37;;;;;;;;;;;;;;;15.92;64.86;100843.05;106904;1283;25341;-46
2023/06/06 05:04:05;;;;;;;;;;;;;;;16.10;64.35;100841.40;107119;1283;23879;-46
2023/06/06 05:06:36;;;;;;;;;;;;;;;16.29;64.01;100843.25;107455;1283;23904;-44
2023/06/06 05:09:04;;;;;;;;;;;;;;;16.49;63.45;100841.88;106684;1283;24207;-43
2023/06/06 05:11:32;;;;;;;;;;;;;;;16.66;62.66;100838.78;106506;1283;24268;-48
2023/06/06 05:13:59;;;;;;;;;;;;;;;16.83;61.78;100839.77;107935;1280;23201;-45
2023/06/06 05:16:27;;;;;;;;;;;;;;;16.99;61.21;100842.14;109243;1280;23265;-45
2023/06/06 05:18:55;;;;;;;;;;;;;;;17.19;61.17;100840.89;109782;1275;22424;-47
2023/06/06 05:21:22;;;;;;;;;;;;;;;17.40;59.87;100840.14;109809;1281;23228;-45
2023/06/06 05:23:50;;;;;;;;;;;;;;;17.60;58.69;100840.98;109857;1276;23173;-44
2023/06/06 05:26:17;;;;;;;;;;;;;;;17.80;57.01;100840.77;109838;1280;23131;-46
2023/06/06 05:28:45;;;;;;;;;;;;;;;17.99;54.23;100836.29;109619;1276;22641;-45
2023/06/06 05:31:16;;;;;;;;;;;;;;;18.19;52.90;100839.58;109794;1283;22381;-45
2023/06/06 05:33:44;;;;;;;;;;;;;;;18.38;51.50;100837.19;109317;1275;23706;-45
2023/06/06 05:36:11;;;;;;;;;;;;;;;18.54;50.44;100835.02;109502;1278;22455;-45
2023/06/06 05:38:39;;;;;;;;;;;;;;;18.71;49.86;100836.76;109715;1278;22452;-45
2023/06/06 05:41:07;;;;;;;;;;;;;;;18.88;49.74;100835.43;109547;1278;22427;-46
2023/06/06 05:43:34;;;;;;;;;;;;;;;19.05;48.41;100829.68;109645;1281;23193;-47
2023/06/06 05:46:02;;;;;;;;;;;;;;;19.21;47.52;100829.97;109548;1283;22422;-44
2023/06/06 05:48:30;;;;;;;;;;;;;;;19.37;47.42;100830.77;109673;1276;22927;-44
2023/06/06 05:50:57;;;;;;;;;;;;;;;19.55;46.42;100829.40;109472;1280;23418;-45
2023/06/06 05:53:26;;;;;;;;;;;;;;;19.72;45.09;100831.40;109526;1282;22972;-46
2023/06/06 05:55:53;;;;;;;;;;;;;;;19.88;44.78;100834.48;109565;1282;22561;-46
2023/06/06 05:58:20;;;;;;;;;;;;;;;20.05;43.78;100835.35;109621;1277;22455;-43
2023/06/06 06:00:48;;;;;;;;;;;;;;;20.22;42.73;100833.43;109612;1275;22416;-45
2023/06/06 06:03:16;;;;;;;;;;;;;;;20.36;42.27;100831.38;109686;1282;23177;-46
2023/06/06 06:05:44;;;;;;;;;;;;;;;20.51;40.65;100824.73;109851;1279;23316;-43
2023/06/06 06:08:12;;;;;;;;;;;;;;;20.65;40.01;100822.48;108496;1281;22602;-45
2023/06/06 06:10:39;;;;;;;;;;;;;;;20.81;40.29;100824.46;109427;1275;22792;-43
2023/06/06 06:13:07;;;;;;;;;;;;;;;20.96;38.88;100825.50;109791;1278;22449;-44
2023/06/06 06:15:35;;;;;;;;;;;;;;;21.10;38.12;100825.40;109420;1278;22495;-43
2023/06/06 06:18:02;;;;;;;;;;;;;;;21.22;37.67;100818.05;109817;1279;22584;-44
2023/06/06 06:20:30;;;;;;;;;;;;;;;21.34;38.18;100817.80;109785;1281;22421;-44
2023/06/06 06:22:57;;;;;;;;;;;;;;;21.48;37.13;100821.92;109477;1275;22484;-44
2023/06/06 06:25:25;;;;;;;;;;;;;;;21.57;36.49;100819.47;109737;1274;23132;-44
2023/06/06 06:27:52;;;;;;;;;;;;;;;21.63;36.42;100814.96;109748;1275;22453;-44
2023/06/06 06:30:20;;;;;;;;;;;;;;;21.74;36.46;100817.05;109813;1281;22422;-44
2023/06/06 06:32:47;;;;;;;;;;;;;;;21.85;36.30;100810.61;109837;1275;22433;-44
2023/06/06 06:35:15;;;;;;;;;;;;;;;21.95;35.84;100811.27;109879;1275;23043;-47
2023/06/06 06:37:43;;;;;;;;;;;;;;;22.06;35.70;100810.65;109801;1275;22512;-46
2023/06/06 06:40:10;;;;;;;;;;;;;;;22.17;34.88;100809.74;109745;1277;23213;-45
2023/06/06 06:42:43;;;;;;;;;;;;;;;22.27;34.67;100805.58;109781;1276;22463;-44
2023/06/06 06:45:27;;;;;;;;;;;;;;;22.37;34.84;100804.81;109694;1277;22943;-46
2023/06/06 06:47:55;;;;;;;;;;;;;;;22.48;34.46;100800.48;109875;1276;22479;-47
2023/06/06 06:50:22;;;;;;;;;;;;;;;22.57;34.96;100800.44;109718;1275;22484;-46
2023/06/06 06:52:53;;;;;;;;;;;;;;;22.68;34.67;100801.02;109665;1276;22447;-44
2023/06/06 06:55:23;;;;;;;;;;;;;;;22.79;34.46;100797.18;109615;1281;22573;-44
2023/06/06 06:57:52;;;;;;;;;;;;;;;22.90;33.97;100798.73;109759;1275;23174;-44
2023/06/06 07:00:22;;;;;;;;;;;;;;;22.99;33.44;100794.95;109754;1276;22511;-46
2023/06/06 07:02:50;;;;;;;;;;;;;;;23.04;32.90;100792.63;109685;1281;22456;-47
2023/06/06 07:05:18;;;;;;;;;;;;;;;23.08;32.91;100791.33;109710;1275;22444;-47
2023/06/06 07:07:50;;;;;;;;;;;;;;;23.16;33.07;100794.38;109655;1280;22439;-45
2023/06/06 07:10:17;;;;;;;;;;;;;;;23.25;31.89;100793.27;109763;1279;23087;-45
2023/06/06 07:12:45;;;;;;;;;;;;;;;23.29;31.19;100790.92;109751;1279;22366;-44
2023/06/06 07:15:13;;;;;;;;;;;;;;;23.36;31.04;100791.54;109681;1281;22432;-48
2023/06/06 07:17:42;;;;;;;;;;;;;;;23.46;30.70;100790.73;109671;1277;23272;-44
2023/06/06 07:20:11;;;;;;;;;;;;;;;23.53;30.18;100792.36;109739;1281;22863;-47
2023/06/06 07:22:38;;;;;;;;;;;;;;;23.54;29.32;100789.27;109768;1275;22587;-44
2023/06/06 07:25:06;;;;;;;;;;;;;;;23.55;29.24;100793.88;109805;1282;22419;-44
2023/06/06 07:27:35;;;;;;;;;;;;;;;23.56;29.01;100795.96;109783;1282;22453;-46
2023/06/06 07:30:06;;;;;;;;;;;;;;;23.57;28.86;100793.76;109792;1279;22475;-47
2023/06/06 07:32:34;;;;;;;;;;;;;;;23.61;29.00;100794.64;109680;1277;23066;-46
2023/06/06 07:35:01;;;;;;;;;;;;;;;23.67;28.44;100798.19;108328;1276;22507;-47
2023/06/06 07:37:29;;;;;;;;;;;;;;;23.69;28.61;100802.14;109723;1276;22461;-44
2023/06/06 07:39:56;;;;;;;;;;;;;;;23.73;27.72;100793.95;109684;1281;22899;-48
2023/06/06 07:42:24;;;;;;;;;;;;;;;23.74;28.03;100790.17;109703;1275;22424;-44
2023/06/06 07:44:55;;;;;;;;;;;;;;;23.78;28.22;100790.86;109671;1282;22426;-45
2023/06/06 07:47:23;;;;;;;;;;;;;;;23.94;28.82;100790.80;109787;1279;22475;-46
2023/06/06 07:49:51;;;;;;;;;;;;;;;24.13;28.21;100788.50;109592;1281;23216;-46
2023/06/06 07:52:18;;;;;;;;;;;;;;;24.27;27.92;100785.30;109695;1281;22829;-45
2023/06/06 07:54:46;;;;;;;;;;;;;;;24.36;27.25;100787.02;109686;1281;22669;-45
2023/06/06 07:57:16;;;;;;;;;;;;;;;24.45;28.10;100786.42;109648;1276;22462;-47
2023/06/06 07:59:44;;;;;;;;;;;;;;;24.50;27.20;100780.98;109785;1282;22499;-43
2023/06/06 08:02:15;;;;;;;;;;;;;;;24.55;26.79;100781.25;109699;1282;22451;-43
2023/06/06 08:04:45;;;;;;;;;;;;;;;24.59;27.02;100777.30;109712;1282;23301;-47
2023/06/06 08:07:13;;;;;;;;;;;;;;;24.65;26.91;100775.76;109784;1282;22466;-46
2023/06/06 08:09:41;;;;;;;;;;;;;;;24.68;26.57;100777.57;109658;1278;22444;-46
2023/06/06 08:12:10;;;;;;;;;;;;;;;24.65;26.34;100779.86;109591;1278;23027;-43
2023/06/06 08:14:37;;;;;;;;;;;;;;;24.69;26.28;100775.74;109624;1275;22561;-43
2023/06/06 08:17:05;;;;;;;;;;;;;;;24.73;25.92;100776.04;109623;1277;23252;-44
2023/06/06 08:19:33;;;;;;;;;;;;;;;24.57;25.70;100768.52;109622;1278;22468;-44
2023/06/06 08:22:04;;;;;;;;;;;;;;;24.37;26.48;100769.67;109705;1279;22656;-43
2023/06/06 08:24:31;;;;;;;;;;;;;;;24.40;26.49;100766.67;109694;1275;22431;-43
2023/06/06 08:26:59;;;;;;;;;;;;;;;24.57;26.35;100763.53;109611;1275;23295;-43
2023/06/06 08:29:26;;;;;;;;;;;;;;;24.77;26.88;100761.23;109599;1280;22435;-43
2023/06/06 08:31:54;;;;;;;;;;;;;;;25.01;26.88;100761.27;109727;1276;22546;-44
2023/06/06 08:34:22;;;;;;;;;;;;;;;25.19;26.39;100757.09;109112;1281;22507;-46
2023/06/06 08:36:50;;;;;;;;;;;;;;;25.37;25.49;100756.11;109690;1282;23144;-46
2023/06/06 08:39:20;;;;;;;;;;;;;;;25.45;25.11;100750.85;109621;1276;23310;-47
2023/06/06 08:41:52;;;;;;;;;;;;;;;25.52;24.82;100751.37;109676;1282;22455;-48
2023/06/06 08:44:20;;;;;;;;;;;;;;;25.70;25.73;100747.52;109718;1275;22455;-47
2023/06/06 08:46:49;;;;;;;;;;;;;;;26.00;25.81;100746.06;109572;1282;23686;-48
2023/06/06 08:49:18;;;;;;;;;;;;;;;26.23;24.77;100748.10;109680;1278;23227;-47
2023/06/06 08:51:49;;;;;;;;;;;;;;;26.45;25.72;100746.67;109738;1282;22463;-53
2023/06/06 08:54:20;;;;;;;;;;;;;;;26.63;25.60;100748.30;109794;1282;22452;-52
2023/06/06 08:56:47;;;;;;;;;;;;;;;26.64;25.23;100746.77;109738;1281;23320;-54
2023/06/06 08:59:15;;;;;;;;;;;;;;;26.59;25.14;100748.73;109742;1276;22444;-53
2023/06/06 09:01:43;;;;;;;;;;;;;;;26.61;25.40;100742.48;109248;1278;22500;-52
2023/06/06 09:04:13;;;;;;;;;;;;;;;26.57;24.92;100744.71;109729;1282;22410;-45
2023/06/06 09:06:43;;;;;;;;;;;;;;;26.39;24.12;100744.69;109868;1279;23012;-52
2023/06/06 09:09:12;;;;;;;;;;;;;;;26.22;24.46;100742.61;109762;1282;23683;-52
2023/06/06 09:11:40;;;;;;;;;;;;;;;26.07;24.69;100739.05;109772;1276;22944;-48
2023/06/06 09:14:07;;;;;;;;;;;;;;;25.91;24.32;100737.27;109831;1282;22475;-46
2023/06/06 09:16:35;;;;;;;;;;;;;;;25.76;24.77;100737.03;109746;1278;23184;-53
2023/06/06 09:19:02;;;;;;;;;;;;;;;25.65;24.91;100738.52;109661;1278;23140;-45
2023/06/06 09:21:32;;;;;;;;;;;;;;;25.56;25.50;100739.17;109787;1282;22437;-46
2023/06/06 09:24:00;;;;;;;;;;;;;;;25.53;25.25;100740.09;109710;1282;22460;-47
2023/06/06 09:26:28;;;;;;;;;;;;;;;25.62;25.48;100736.02;109808;1282;22396;-46
2023/06/06 09:28:56;;;;;;;;;;;;;;;25.81;24.95;100732.09;109754;1282;23189;-46
2023/06/06 09:31:25;;;;;;;;;;;;;;;26.08;25.51;100733.42;109690;1282;23578;-46
2023/06/06 09:33:53;;;;;;;;;;;;;;;26.38;24.39;100730.80;109761;1281;23651;-46
2023/06/06 09:36:21;;;;;;;;;;;;;;;26.48;24.63;100731.27;109792;1276;22459;-46
2023/06/06 09:38:49;;;;;;;;;;;;;;;26.42;24.55;100731.27;109652;1282;22945;-46
2023/06/06 09:41:17;;;;;;;;;;;;;;;26.31;24.51;100728.50;109775;1282;23196;-45
2023/06/06 09:43:47;;;;;;;;;;;;;;;26.18;25.06;100726.59;109724;1282;22778;-46
2023/06/06 09:46:15;;;;;;;;;;;;;;;26.07;25.39;100721.33;109827;1281;22444;-53
2023/06/06 09:48:56;;;;;;;;;;;;;;;26.04;25.25;100720.63;109793;1277;22480;-53
2023/06/06 09:51:24;;;;;;;;;;;;;;;26.01;24.75;100720.77;109866;1282;22513;-53
2023/06/06 09:53:51;;;;;;;;;;;;;;;25.96;25.36;100723.02;109843;1282;22436;-52
2023/06/06 09:56:22;;;;;;;;;;;;;;;25.84;25.88;100723.89;109880;1282;22435;-44
2023/06/06 09:58:52;;;;;;;;;;;;;;;25.75;25.57;100721.75;109828;1282;23207;-45
2023/06/06 10:01:21;;;;;;;;;;;;;;;25.62;25.18;100720.84;109124;1282;23242;-52
2023/06/06 10:03:48;;;;;;;;;;;;;;;25.53;25.61;100718.63;109770;1276;22443;-45
2023/06/06 10:06:17;;;;;;;;;;;;;;;25.53;25.89;100720.48;109825;1283;22449;-45
2023/06/06 10:08:45;;;;;;;;;;;;;;;25.62;26.07;100715.13;109817;1282;22464;-52
2023/06/06 10:11:12;;;;;;;;;;;;;;;25.85;25.70;100718.86;109868;1282;23193;-45
2023/06/06 10:13:40;;;;;;;;;;;;;;;26.14;25.25;100714.67;109772;1282;22441;-44
2023/06/06 10:16:10;;;;;;;;;;;;;;;26.42;24.92;100714.46;109836;1282;22437;-52
2023/06/06 10:18:41;;;;;;;;;;;;;;;26.65;24.84;100713.45;109782;1282;22506;-44
2023/06/06 10:21:08;;;;;;;;;;;;;;;26.72;23.95;100712.70;109770;1276;22444;-45
2023/06/06 10:23:36;;;;;;;;;;;;;;;26.60;23.85;100708.23;109841;1282;22449;-52
2023/06/06 10:26:04;;;;;;;;;;;;;;;26.63;24.36;100706.43;109785;1275;22960;-45
2023/06/06 10:28:35;;;;;;;;;;;;;;;26.78;23.64;100703.89;108765;1282;22617;-46
2023/06/06 10:31:33;;;;;;;;;;;;;;;26.99;24.12;100701.57;108099;1282;22556;-52
2023/06/06 10:34:03;;;;;;;;;;;;;;;27.41;24.22;100699.27;108816;1285;22561;-46
2023/06/06 10:36:38;;;;;;;;;;;;;;;27.82;23.62;100703.27;109311;1289;23258;-45
2023/06/06 10:39:17;;;;;;;;;;;;;;;27.97;22.97;100695.61;109337;1288;22465;-46
2023/06/06 10:41:52;;;;;;;;;;;;;;;27.80;23.02;100694.30;109382;1288;22452;-53
2023/06/06 10:44:26;;;;;;;;;;;;;;;27.60;23.45;100692.68;109289;1288;22476;-53
2023/06/06 10:47:12;;;;;;;;;;;;;;;27.57;23.81;100690.54;109392;1289;22474;-45
2023/06/06 10:49:40;;;;;;;;;;;;;;;27.68;23.12;100688.39;109312;1289;22576;-52
2023/06/06 10:52:07;;;;;;;;;;;;;;;27.80;22.40;100684.04;109465;1288;22460;-44
2023/06/06 10:54:35;;;;;;;;;;;;;;;27.81;23.28;100685.05;108409;1288;24268;-53
2023/06/06 10:57:03;;;;;;;;;;;;;;;27.89;23.19;100682.42;109418;1288;22448;-53
2023/06/06 10:59:31;;;;;;;;;;;;;;;27.95;22.67;100678.41;108234;1289;22530;-46
2023/06/06 11:01:59;;;;;;;;;;;;;;;27.98;22.25;100681.96;108107;1289;22556;-54
2023/06/06 11:04:27;;;;;;;;;;;;;;;27.96;22.04;100681.95;108318;1289;22512;-53
2023/06/06 11:07:00;;;;;;;;;;;;;;;27.77;22.53;100680.16;107543;1287;22886;-52
2023/06/06 11:09:28;;;;;;;;;;;;;;;27.82;22.78;100679.11;109384;1286;22482;-53
2023/06/06 11:12:08;;;;;;;;;;;;;;;27.96;22.24;100681.06;109736;1283;22479;-45
2023/06/06 11:14:56;;;;;;;;;;;;;;;27.91;22.44;100676.88;109771;1283;23207;-45
2023/06/06 11:17:27;;;;;;;;;;;;;;;27.68;22.27;100680.55;109795;1281;22471;-52
2023/06/06 11:19:55;;;;;;;;;;;;;;;27.39;22.52;100683.65;109789;1283;22915;-52
2023/06/06 11:22:25;;;;;;;;;;;;;;;27.18;22.67;100681.61;108756;1283;22513;-52
2023/06/06 11:24:56;;;;;;;;;;;;;;;27.11;22.79;100685.40;107635;1283;24477;-53
2023/06/06 11:27:23;;;;;;;;;;;;;;;27.22;23.13;100675.39;108458;1283;22561;-52
2023/06/06 11:29:52;;;;;;;;;;;;;;;27.40;22.81;100681.78;109652;1282;22449;-51
2023/06/06 11:32:19;;;;;;;;;;;;;;;27.44;22.51;100676.55;109766;1283;22880;-52
2023/06/06 11:34:47;;;;;;;;;;;;;;;27.39;23.07;100680.42;107659;1279;2763392;-50
2023/06/06 11:37:15;;;;;;;;;;;;;;;27.39;24.08;100679.20;109742;1282;22897;-51
2023/06/06 11:39:42;;;;;;;;;;;;;;;27.51;23.97;100674.06;109708;1280;22419;-51
2023/06/06 11:42:15;;;;;;;;;;;;;;;27.67;23.81;100674.51;109776;1283;22420;-54
2023/06/06 11:44:43;;;;;;;;;;;;;;;27.82;23.21;100674.08;109782;1283;22453;-52
2023/06/06 11:47:10;;;;;;;;;;;;;;;27.93;23.68;100672.31;109769;1283;22453;-45
2023/06/06 11:49:45;;;;;;;;;;;;;;;27.96;23.27;100672.29;108084;1282;23351;-44
2023/06/06 11:52:13;;;;;;;;;;;;;;;27.95;23.43;100674.13;109863;1282;22429;-44
2023/06/06 11:54:49;;;;;;;;;;;;;;;27.87;23.40;100673.21;109764;1282;22449;-45
2023/06/06 11:57:17;;;;;;;;;;;;;;;27.71;23.11;100672.44;109752;1277;22560;-45
2023/06/06 11:59:54;;;;;;;;;;;;;;;27.67;23.81;100675.41;109700;1276;22466;-46
2023/06/06 12:02:22;;;;;;;;;;;;;;;27.73;23.66;100670.40;109721;1275;23264;-45
2023/06/06 12:04:50;;;;;;;;;;;;;;;27.75;23.54;100671.83;109723;1277;22455;-52
2023/06/06 12:07:18;;;;;;;;;;;;;;;27.71;23.60;100662.62;109160;1276;23346;-44
2023/06/06 12:09:53;;;;;;;;;;;;;;;27.73;23.77;100660.47;109797;1282;23228;-44
2023/06/06 12:12:20;;;;;;;;;;;;;;;27.83;23.40;100659.15;109773;1279;22436;-44
2023/06/06 12:14:54;;;;;;;;;;;;;;;27.81;23.12;100657.62;109353;1274;22523;-45
2023/06/06 12:17:23;;;;;;;;;;;;;;;27.82;23.25;100657.90;109846;1282;23029;-44
2023/06/06 12:19:53;;;;;;;;;;;;;;;27.87;23.16;100659.40;109764;1276;22452;-46
2023/06/06 12:22:31;;;;;;;;;;;;;;;27.81;22.85;100655.36;109212;1277;22535;-45
2023/06/06 12:24:58;;;;;;;;;;;;;;;27.71;23.58;100653.46;109766;1276;23172;-45
2023/06/06 12:27:26;;;;;;;;;;;;;;;27.74;23.36;100653.29;109830;1282;23165;-45
2023/06/06 12:29:55;;;;;;;;;;;;;;;27.79;23.17;100652.58;109847;1282;22430;-44
2023/06/06 12:32:25;;;;;;;;;;;;;;;27.91;22.90;100650.73;109814;1276;23264;-45
2023/06/06 12:34:59;;;;;;;;;;;;;;;28.06;23.31;100647.39;109760;1282;22466;-44
2023/06/06 12:37:43;;;;;;;;;;;;;;;28.21;23.12;100647.27;109810;1282;22413;-46
2023/06/06 12:40:14;;;;;;;;;;;;;;;28.12;23.17;100647.70;109748;1282;22440;-45
2023/06/06 12:42:49;;;;;;;;;;;;;;;27.92;23.20;100647.05;109749;1282;22806;-44
2023/06/06 12:45:16;;;;;;;;;;;;;;;27.76;23.71;100639.02;109744;1282;22432;-45
2023/06/06 12:47:44;;;;;;;;;;;;;;;27.68;23.89;100638.57;109789;1277;22459;-45
2023/06/06 12:50:11;;;;;;;;;;;;;;;27.62;23.68;100638.43;109766;1277;23167;-45
2023/06/06 12:52:39;;;;;;;;;;;;;;;27.46;23.59;100636.79;109817;1282;23165;-45
2023/06/06 12:55:06;;;;;;;;;;;;;;;27.22;23.36;100637.48;109708;1281;22469;-45
2023/06/06 12:57:34;;;;;;;;;;;;;;;27.06;23.96;100633.65;109765;1282;22461;-45
2023/06/06 13:00:03;;;;;;;;;;;;;;;27.09;24.09;100632.04;109795;1276;22445;-45
2023/06/06 13:02:33;;;;;;;;;;;;;;;27.18;24.01;100629.30;109785;1277;22450;-47
2023/06/06 13:05:01;;;;;;;;;;;;;;;27.22;24.17;100623.14;109814;1277;23085;-44
2023/06/06 13:07:29;;;;;;;;;;;;;;;27.15;24.54;100622.14;109849;1276;22901;-45
2023/06/06 13:09:58;;;;;;;;;;;;;;;27.00;24.18;100620.54;109839;1282;23623;-45
2023/06/06 13:12:26;;;;;;;;;;;;;;;26.82;24.18;100620.09;108245;1282;22516;-44
2023/06/06 13:14:57;;;;;;;;;;;;;;;26.68;24.57;100617.02;107584;1282;22548;-44
2023/06/06 13:17:25;;;;;;;;;;;;;;;26.68;24.74;100616.87;107980;1277;22523;-45
2023/06/06 13:19:52;;;;;;;;;;;;;;;26.69;24.69;100613.91;108055;1275;22512;-45
2023/06/06 13:22:20;;;;;;;;;;;;;;;26.73;24.97;100610.46;109085;1276;22516;-45
2023/06/06 13:24:47;;;;;;;;;;;;;;;26.81;24.97;100607.44;108331;1282;22512;-44
2023/06/06 13:27:15;;;;;;;;;;;;;;;26.90;24.64;100607.23;109023;1282;23310;-45
2023/06/06 13:29:42;;;;;;;;;;;;;;;27.05;24.18;100603.66;109614;1279;22509;-45
2023/06/06 13:32:13;;;;;;;;;;;;;;;27.26;24.28;100596.40;109370;1282;24175;-45
2023/06/06 13:34:41;;;;;;;;;;;;;;;27.55;24.44;100601.67;109072;1279;22560;-45
2023/06/06 13:37:08;;;;;;;;;;;;;;;27.82;24.17;100603.33;109812;1282;22424;-45
2023/06/06 13:39:36;;;;;;;;;;;;;;;28.02;23.51;100602.66;109803;1280;23201;-45
2023/06/06 13:42:05;;;;;;;;;;;;;;;28.15;23.49;100601.96;109812;1275;22445;-44
2023/06/06 13:44:35;;;;;;;;;;;;;;;28.27;23.43;100601.31;109661;1280;23316;-46
2023/06/06 13:47:04;;;;;;;;;;;;;;;28.36;23.68;100601.45;109726;1278;22472;-52
2023/06/06 13:49:31;;;;;;;;;;;;;;;28.30;23.76;100600.73;109826;1276;22463;-52
2023/06/06 13:51:59;;;;;;;;;;;;;;;28.16;23.57;100601.70;109839;1276;22480;-53
2023/06/06 13:54:26;;;;;;;;;;;;;;;27.95;23.25;100597.26;109818;1276;22467;-52
2023/06/06 13:56:54;;;;;;;;;;;;;;;27.86;23.38;100595.66;109781;1282;23094;-51
2023/06/06 13:59:22;;;;;;;;;;;;;;;27.83;23.36;100587.97;109839;1278;22461;-51
2023/06/06 14:01:51;;;;;;;;;;;;;;;27.82;23.33;100589.66;109235;1282;22564;-52
2023/06/06 14:04:19;;;;;;;;;;;;;;;27.77;23.88;100590.89;109707;1278;22442;-52
2023/06/06 14:06:48;;;;;;;;;;;;;;;27.77;23.59;100588.06;109813;1282;22469;-52
2023/06/06 14:09:18;;;;;;;;;;;;;;;27.76;23.92;100585.23;109896;1282;22419;-52
2023/06/06 14:11:47;;;;;;;;;;;;;;;27.81;23.84;100584.58;107255;1282;22515;-51
2023/06/06 14:14:14;;;;;;;;;;;;;;;27.82;23.98;100582.52;106937;1282;24368;-50
2023/06/06 14:16:42;;;;;;;;;;;;;;;27.77;24.27;100576.04;106913;1282;23129;-51
2023/06/06 14:19:13;;;;;;;;;;;;;;;27.74;23.91;100573.00;107193;1282;22514;-53
